createdAt,value
2018-10-17T00:00:06.656Z,15.37
2018-10-17T00:02:34.816Z,14.50
2018-10-17T00:05:03.011Z,15.77
2018-10-17T00:07:31.096Z,15.20
2018-10-17T00:09:59.278Z,14.17
2018-10-17T00:12:27.416Z,16.90
2018-10-17T00:14:55.661Z,16.00
2018-10-17T00:17:23.845Z,14.97
2018-10-17T00:19:52.020Z,15.10
2018-10-17T00:22:20.176Z,14.50
2018-10-17T00:24:48.316Z,14.27
2018-10-17T00:27:16.481Z,16.43
2018-10-17T00:29:44.682Z,18.47
2018-10-17T00:32:12.852Z,16.00
2018-10-17T00:34:41.013Z,16.50
2018-10-17T00:37:09.262Z,16.87
2018-10-17T00:39:37.325Z,16.27
2018-10-17T00:42:05.607Z,16.50
2018-10-17T00:44:33.768Z,17.03
2018-10-17T00:47:01.956Z,17.13
2018-10-17T00:49:30.117Z,16.70
2018-10-17T00:51:58.264Z,15.87
2018-10-17T00:54:26.445Z,15.93
2018-10-17T00:56:54.621Z,15.17
2018-10-17T00:59:22.758Z,16.95
2018-10-17T01:01:50.912Z,16.37
2018-10-17T01:04:19.088Z,17.47
2018-10-17T01:06:47.279Z,16.53
2018-10-17T01:09:15.664Z,18.87
2018-10-17T01:11:43.840Z,17.97
2018-10-17T01:14:12.107Z,17.40
2018-10-17T01:16:40.264Z,16.70
2018-10-17T01:19:08.523Z,15.73
2018-10-17T01:21:37.024Z,16.83
2018-10-17T01:24:05.434Z,14.67
2018-10-17T01:26:33.696Z,15.60
2018-10-17T01:29:01.891Z,17.17
2018-10-17T01:31:30.423Z,17.83
2018-10-17T01:33:58.585Z,16.30
2018-10-17T01:36:26.743Z,16.30
2018-10-17T01:38:54.890Z,17.03
2018-10-17T01:41:23.013Z,14.53
2018-10-17T01:43:51.201Z,14.30
2018-10-17T01:46:19.356Z,16.33
2018-10-17T01:48:47.578Z,15.90
2018-10-17T01:51:15.760Z,16.50
2018-10-17T01:53:43.978Z,16.37
2018-10-17T01:56:12.136Z,17.23
2018-10-17T01:58:40.287Z,16.60
2018-10-17T02:01:08.527Z,17.50
2018-10-17T02:03:36.673Z,17.20
2018-10-17T02:06:06.023Z,17.97
2018-10-17T02:08:34.221Z,17.00
2018-10-17T02:11:02.426Z,17.20
2018-10-17T02:13:30.529Z,16.00
2018-10-17T02:15:58.827Z,17.10
2018-10-17T02:18:27.002Z,16.90
2018-10-17T02:20:55.690Z,13.90
2018-10-17T02:23:23.841Z,15.37
2018-10-17T02:25:52.534Z,15.90
2018-10-17T02:28:20.672Z,17.73
2018-10-17T02:30:48.860Z,16.37
2018-10-17T02:33:17.029Z,15.70
2018-10-17T02:35:45.185Z,15.60
2018-10-17T02:38:13.673Z,15.20
2018-10-17T02:40:41.829Z,14.03
2018-10-17T02:43:10.115Z,16.47
2018-10-17T02:45:38.186Z,14.80
2018-10-17T02:48:06.341Z,16.07
2018-10-17T02:50:34.546Z,18.47
2018-10-17T02:53:02.737Z,14.23
2018-10-17T02:55:30.880Z,15.40
2018-10-17T02:57:59.048Z,15.37
2018-10-17T03:00:27.188Z,15.80
2018-10-17T03:02:55.384Z,15.53
2018-10-17T03:05:23.537Z,14.80
2018-10-17T03:07:51.704Z,16.37
2018-10-17T03:10:19.867Z,13.97
2018-10-17T03:12:48.016Z,16.57
2018-10-17T03:15:16.172Z,16.00
2018-10-17T03:17:44.363Z,15.60
2018-10-17T03:20:12.540Z,15.43
2018-10-17T03:22:40.880Z,15.10
2018-10-17T03:25:09.763Z,16.87
2018-10-17T03:27:37.981Z,14.70
2018-10-17T03:30:06.310Z,17.03
2018-10-17T03:32:34.476Z,16.40
2018-10-17T03:35:02.682Z,16.20
2018-10-17T03:37:30.817Z,15.50
2018-10-17T03:39:59.078Z,17.87
2018-10-17T03:42:27.225Z,15.53
2018-10-17T03:44:55.393Z,14.03
2018-10-17T03:47:23.523Z,16.10
2018-10-17T03:49:51.761Z,15.67
2018-10-17T03:52:19.832Z,15.47
2018-10-17T03:54:48.000Z,15.97
2018-10-17T03:57:16.192Z,16.10
2018-10-17T03:59:44.483Z,14.70
2018-10-17T04:02:12.557Z,15.70
2018-10-17T04:04:40.740Z,16.07
2018-10-17T04:07:08.922Z,17.43
2018-10-17T04:09:37.059Z,16.33
2018-10-17T04:12:05.265Z,17.53
2018-10-17T04:14:33.457Z,16.47
2018-10-17T04:17:01.688Z,15.57
2018-10-17T04:19:30.012Z,18.32
2018-10-17T04:21:58.389Z,15.03
2018-10-17T04:24:26.569Z,15.10
2018-10-17T04:26:54.749Z,14.80
2018-10-17T04:29:22.935Z,17.17
2018-10-17T04:31:51.069Z,16.53
2018-10-17T04:34:19.264Z,15.47
2018-10-17T04:36:47.481Z,19.17
2018-10-17T04:39:15.651Z,17.77
2018-10-17T04:41:43.880Z,16.73
2018-10-17T04:44:12.082Z,17.23
2018-10-17T04:46:40.285Z,15.60
2018-10-17T04:49:09.211Z,17.10
2018-10-17T04:51:37.290Z,17.63
2018-10-17T04:54:06.082Z,17.30
2018-10-17T04:56:34.225Z,15.10
2018-10-17T04:59:02.455Z,15.77
2018-10-17T05:01:30.589Z,16.50
2018-10-17T05:03:58.773Z,16.20
2018-10-17T05:06:26.908Z,16.80
2018-10-17T05:08:55.090Z,18.20
2018-10-17T05:11:23.237Z,16.70
2018-10-17T05:13:52.289Z,16.90
2018-10-17T05:16:20.705Z,16.63
2018-10-17T05:18:48.911Z,17.27
2018-10-17T05:21:17.084Z,19.70
2018-10-17T05:23:45.334Z,18.07
2018-10-17T05:26:13.501Z,16.33
2018-10-17T05:28:41.703Z,15.33
2018-10-17T05:31:10.741Z,17.13
2018-10-17T05:33:38.942Z,17.47
2018-10-17T05:36:07.101Z,17.47
2018-10-17T05:38:35.271Z,17.50
2018-10-17T05:41:03.411Z,18.87
2018-10-17T05:43:31.560Z,17.40
2018-10-17T05:45:59.917Z,16.30
2018-10-17T05:48:28.114Z,15.60
2018-10-17T05:50:56.317Z,16.27
2018-10-17T05:53:24.507Z,16.57
2018-10-17T05:55:52.716Z,15.97
2018-10-17T05:58:20.912Z,16.67
2018-10-17T06:00:49.130Z,15.60
2018-10-17T06:03:17.328Z,16.90
2018-10-17T06:05:45.502Z,17.33
2018-10-17T06:08:13.774Z,17.00
2018-10-17T06:10:41.952Z,16.07
2018-10-17T06:13:10.202Z,15.80
2018-10-17T06:15:38.285Z,15.93
2018-10-17T06:18:06.447Z,17.43
2018-10-17T06:20:34.613Z,16.63
2018-10-17T06:23:02.929Z,13.27
2018-10-17T06:25:31.018Z,15.77
2018-10-17T06:27:59.204Z,19.80
2018-10-17T06:30:27.442Z,17.70
2018-10-17T06:32:55.548Z,16.00
2018-10-17T06:35:23.781Z,48.67
2018-10-17T06:37:51.965Z,39.23
2018-10-17T06:40:20.129Z,74.80
2018-10-17T06:42:48.365Z,27.43
2018-10-17T06:45:16.655Z,122.07
2018-10-17T06:47:44.851Z,73.80
2018-10-17T06:50:13.034Z,58.73
2018-10-17T06:52:41.223Z,31.00
2018-10-17T06:55:09.492Z,25.23
2018-10-17T06:57:37.605Z,15.50
2018-10-17T07:00:07.555Z,25.97
2018-10-17T07:02:35.676Z,16.13
2018-10-17T07:05:04.019Z,17.03
2018-10-17T07:07:32.177Z,16.83
2018-10-17T07:10:00.366Z,16.07
2018-10-17T07:12:28.519Z,15.93
2018-10-17T07:14:56.677Z,15.30
2018-10-17T07:17:24.854Z,14.70
2018-10-17T07:19:53.090Z,15.47
2018-10-17T07:22:21.263Z,16.27
2018-10-17T07:24:49.440Z,16.00
2018-10-17T07:27:17.824Z,17.07
2018-10-17T07:29:46.296Z,16.47
2018-10-17T07:32:14.293Z,16.33
2018-10-17T07:34:42.524Z,14.73
2018-10-17T07:37:10.716Z,15.17
2018-10-17T07:39:38.888Z,18.97
2018-10-17T07:42:07.228Z,18.10
2018-10-17T07:44:35.345Z,16.77
2018-10-17T07:47:03.513Z,17.10
2018-10-17T07:49:31.720Z,16.80
2018-10-17T07:52:00.213Z,18.50
2018-10-17T07:54:28.369Z,17.10
2018-10-17T07:56:56.532Z,16.03
2018-10-17T07:59:24.738Z,16.30
2018-10-17T08:01:52.892Z,16.10
2018-10-17T08:04:21.145Z,17.30
2018-10-17T08:06:49.315Z,17.47
2018-10-17T08:09:17.526Z,16.73
2018-10-17T08:11:45.780Z,14.70
2018-10-17T08:14:14.045Z,16.83
2018-10-17T08:16:45.401Z,16.93
2018-10-17T08:19:13.764Z,18.57
2018-10-17T08:21:41.944Z,16.70
2018-10-17T08:24:10.185Z,15.83
2018-10-17T08:26:38.347Z,16.40
2018-10-17T08:29:06.510Z,17.83
2018-10-17T08:31:34.764Z,16.30
2018-10-17T08:34:03.048Z,18.30
2018-10-17T08:36:31.440Z,16.97
2018-10-17T08:38:59.349Z,17.47
2018-10-17T08:41:27.521Z,16.37
2018-10-17T08:43:55.718Z,17.27
2018-10-17T08:46:23.924Z,19.17
2018-10-17T08:48:52.101Z,19.07
2018-10-17T08:51:20.243Z,17.07
2018-10-17T08:53:48.411Z,17.00
2018-10-17T08:56:16.786Z,17.97
2018-10-17T08:58:44.820Z,17.47
2018-10-17T09:01:13.933Z,18.40
2018-10-17T09:03:42.097Z,18.37
2018-10-17T09:06:10.347Z,18.53
2018-10-17T09:08:38.429Z,25.13
2018-10-17T09:11:06.664Z,19.23
2018-10-17T09:13:34.991Z,18.53
2018-10-17T09:16:03.116Z,18.40
2018-10-17T09:18:31.228Z,18.87
2018-10-17T09:20:59.877Z,21.00
2018-10-17T09:23:27.627Z,16.70
2018-10-17T09:25:55.804Z,19.27
2018-10-17T09:28:23.958Z,20.70
2018-10-17T09:30:52.113Z,19.23
2018-10-17T09:33:20.324Z,19.13
2018-10-17T09:35:48.584Z,18.13
2018-10-17T09:38:16.721Z,20.40
2018-10-17T09:40:44.923Z,21.67
2018-10-17T09:43:13.936Z,21.23
2018-10-17T09:45:42.062Z,19.30
2018-10-17T09:48:10.213Z,23.23
2018-10-17T09:50:38.383Z,20.60
2018-10-17T09:53:06.622Z,23.40
2018-10-17T09:55:34.829Z,23.53
2018-10-17T09:58:03.139Z,21.73
2018-10-17T10:00:36.615Z,24.40
2018-10-17T10:03:05.810Z,22.70
2018-10-17T10:05:34.045Z,22.43
2018-10-17T10:08:02.230Z,21.83
2018-10-17T10:10:30.405Z,20.50
2018-10-17T10:12:58.552Z,22.97
2018-10-17T10:15:26.723Z,21.90
2018-10-17T10:17:54.906Z,23.93
2018-10-17T10:20:23.079Z,24.47
2018-10-17T10:22:51.372Z,23.93
2018-10-17T10:25:19.580Z,22.13
2018-10-17T10:27:47.705Z,22.53
2018-10-17T10:30:15.880Z,21.73
2018-10-17T10:32:44.140Z,21.63
2018-10-17T10:35:12.300Z,21.90
2018-10-17T10:37:40.470Z,23.10
2018-10-17T10:40:08.762Z,20.57
2018-10-17T10:42:36.821Z,19.40
2018-10-17T10:45:05.970Z,19.73
2018-10-17T10:47:34.161Z,21.37
2018-10-17T10:50:02.372Z,19.67
2018-10-17T10:52:30.506Z,20.03
2018-10-17T10:54:58.665Z,20.37
2018-10-17T10:57:26.841Z,17.67
2018-10-17T10:59:55.069Z,18.93
2018-10-17T11:02:23.303Z,20.00
2018-10-17T11:04:51.583Z,19.10
2018-10-17T11:07:19.648Z,18.27
2018-10-17T11:09:47.825Z,20.37
2018-10-17T11:12:16.020Z,18.60
2018-10-17T11:14:44.300Z,19.40
2018-10-17T11:17:12.396Z,19.10
2018-10-17T11:19:40.516Z,18.47
2018-10-17T11:22:08.704Z,17.60
2018-10-17T11:24:36.958Z,18.70
2018-10-17T11:27:05.328Z,13.77
2018-10-17T11:29:33.432Z,14.43
2018-10-17T11:32:01.691Z,14.80
2018-10-17T11:34:29.872Z,15.60
2018-10-17T11:36:58.171Z,14.20
2018-10-17T11:39:26.422Z,13.90
2018-10-17T11:41:54.665Z,14.60
2018-10-17T11:44:22.870Z,16.47
2018-10-17T11:46:51.076Z,15.63
2018-10-17T11:49:19.225Z,14.00
2018-10-17T11:51:47.419Z,13.37
2018-10-17T11:54:15.598Z,13.73
2018-10-17T11:56:43.868Z,14.00
2018-10-17T11:59:12.128Z,16.10
2018-10-17T12:01:40.378Z,12.83
2018-10-17T12:04:08.730Z,14.20
2018-10-17T12:06:36.870Z,15.37
2018-10-17T12:09:07.146Z,14.03
2018-10-17T12:11:35.307Z,13.30
2018-10-17T12:14:03.434Z,13.33
2018-10-17T12:16:31.809Z,11.93
2018-10-17T12:18:59.975Z,14.07
2018-10-17T12:21:28.187Z,14.03
2018-10-17T12:23:56.402Z,12.93
2018-10-17T12:26:24.565Z,14.03
2018-10-17T12:28:52.723Z,15.37
2018-10-17T12:31:20.893Z,15.10
2018-10-17T12:33:49.117Z,13.83
2018-10-17T12:36:17.303Z,13.60
2018-10-17T12:38:45.475Z,12.37
2018-10-17T12:41:13.665Z,11.80
2018-10-17T12:43:41.834Z,11.57
2018-10-17T12:46:10.009Z,12.47
2018-10-17T12:48:38.164Z,15.20
2018-10-17T12:51:06.322Z,13.47
2018-10-17T12:53:34.496Z,12.60
2018-10-17T12:56:02.626Z,14.30
2018-10-17T12:58:30.780Z,11.90
2018-10-17T13:00:58.995Z,12.43
2018-10-17T13:03:27.112Z,13.93
2018-10-17T13:05:55.367Z,12.43
2018-10-17T13:08:23.525Z,13.97
2018-10-17T13:10:51.782Z,13.77
2018-10-17T13:13:19.866Z,12.87
2018-10-17T13:15:48.023Z,12.70
2018-10-17T13:18:16.206Z,12.20
2018-10-17T13:20:44.375Z,13.23
2018-10-17T13:23:12.683Z,15.53
2018-10-17T13:25:40.905Z,13.97
2018-10-17T13:28:09.074Z,14.83
2018-10-17T13:30:37.281Z,13.10
2018-10-17T13:33:05.469Z,12.60
2018-10-17T13:35:33.661Z,15.07
2018-10-17T13:38:01.904Z,14.30
2018-10-17T13:40:30.109Z,12.90
2018-10-17T13:42:58.398Z,13.57
2018-10-17T13:45:26.530Z,13.40
2018-10-17T13:47:54.847Z,15.20
2018-10-17T13:50:22.988Z,12.40
2018-10-17T13:52:51.179Z,13.63
2018-10-17T13:55:19.354Z,13.40
2018-10-17T13:57:47.502Z,13.43
2018-10-17T14:00:15.553Z,13.27
2018-10-17T14:02:44.281Z,12.87
2018-10-17T14:05:12.498Z,12.07
2018-10-17T14:07:40.669Z,14.20
2018-10-17T14:10:08.825Z,11.80
2018-10-17T14:12:37.115Z,13.10
2018-10-17T14:15:05.555Z,12.47
2018-10-17T14:17:33.655Z,15.57
2018-10-17T14:20:01.830Z,13.73
2018-10-17T14:22:29.977Z,13.47
2018-10-17T14:24:58.296Z,11.83
2018-10-17T14:27:26.472Z,13.67
2018-10-17T14:29:54.639Z,13.23
2018-10-17T14:32:22.808Z,14.30
2018-10-17T14:34:51.028Z,13.13
2018-10-17T14:37:19.212Z,13.23
2018-10-17T14:39:47.349Z,13.83
2018-10-17T14:42:15.784Z,13.83
2018-10-17T14:44:43.913Z,13.47
2018-10-17T14:47:12.092Z,12.70
2018-10-17T14:49:41.025Z,14.30
2018-10-17T14:52:09.219Z,13.53
2018-10-17T14:54:37.374Z,15.13
2018-10-17T14:57:05.825Z,13.63
2018-10-17T14:59:33.929Z,15.07
2018-10-17T15:02:02.161Z,13.17
2018-10-17T15:04:30.304Z,16.00
2018-10-17T15:06:58.492Z,13.30
2018-10-17T15:09:26.682Z,13.93
2018-10-17T15:11:55.027Z,13.60
2018-10-17T15:14:23.130Z,12.60
2018-10-17T15:16:51.301Z,11.57
2018-10-17T15:19:19.557Z,13.90
2018-10-17T15:21:47.748Z,12.40
2018-10-17T15:24:16.033Z,12.50
2018-10-17T15:26:44.157Z,13.00
2018-10-17T15:29:12.324Z,12.77
2018-10-17T15:31:40.492Z,13.87
2018-10-17T15:34:08.695Z,13.90
2018-10-17T15:36:36.858Z,13.53
2018-10-17T15:39:07.382Z,13.53
2018-10-17T15:41:35.476Z,13.70
2018-10-17T15:44:03.706Z,12.33
2018-10-17T15:46:31.899Z,12.83
2018-10-17T15:49:00.147Z,13.57
2018-10-17T15:51:28.340Z,13.53
2018-10-17T15:53:56.609Z,13.80
2018-10-17T15:56:25.021Z,13.13
2018-10-17T15:58:53.153Z,13.00
2018-10-17T16:01:21.291Z,15.30
2018-10-17T16:03:49.482Z,13.70
2018-10-17T16:06:17.797Z,14.40
2018-10-17T16:08:45.844Z,14.97
2018-10-17T16:11:14.005Z,15.50
2018-10-17T16:13:42.149Z,14.73
2018-10-17T16:16:10.324Z,15.53
2018-10-17T16:18:38.502Z,15.20
2018-10-17T16:21:06.711Z,13.87
2018-10-17T16:23:34.869Z,16.23
2018-10-17T16:26:03.187Z,16.70
2018-10-17T16:28:31.288Z,15.97
2018-10-17T16:31:06.122Z,15.17
2018-10-17T16:33:34.232Z,16.20
2018-10-17T16:36:03.295Z,15.77
2018-10-17T16:38:31.485Z,14.67
2018-10-17T16:40:59.718Z,16.97
2018-10-17T16:43:27.835Z,16.30
2018-10-17T16:45:56.287Z,16.90
2018-10-17T16:48:24.424Z,15.13
2018-10-17T16:50:52.634Z,17.90
2018-10-17T16:53:20.737Z,16.97
2018-10-17T16:55:48.909Z,15.40
2018-10-17T16:58:17.150Z,16.13
2018-10-17T17:00:45.312Z,17.33
2018-10-17T17:03:13.538Z,16.80
2018-10-17T17:05:41.629Z,19.10
2018-10-17T17:08:09.809Z,18.23
2018-10-17T17:10:37.977Z,20.10
2018-10-17T17:13:06.131Z,21.20
2018-10-17T17:15:34.360Z,19.53
2018-10-17T17:18:02.822Z,22.17
2018-10-17T17:20:31.046Z,22.57
2018-10-17T17:22:59.298Z,24.17
2018-10-17T17:25:27.453Z,23.40
2018-10-17T17:27:55.659Z,24.43
2018-10-17T17:30:23.934Z,24.40
2018-10-17T17:32:52.124Z,25.00
2018-10-17T17:37:48.567Z,27.93
2018-10-17T17:40:16.729Z,25.80
2018-10-17T17:42:44.864Z,26.30
2018-10-17T17:45:13.173Z,29.67
2018-10-17T17:47:41.345Z,27.67
2018-10-17T17:50:09.882Z,27.43
2018-10-17T17:52:38.078Z,28.10
2018-10-17T17:55:07.381Z,28.43
2018-10-17T17:57:35.556Z,29.17
2018-10-17T18:00:03.792Z,32.70
2018-10-17T18:02:31.961Z,32.87
2018-10-17T18:05:00.133Z,30.37
2018-10-17T18:07:28.282Z,34.13
2018-10-17T18:09:56.576Z,33.03
2018-10-17T18:12:24.774Z,32.50
2018-10-17T18:14:52.970Z,35.97
2018-10-17T18:17:21.133Z,33.03
2018-10-17T18:19:49.329Z,35.30
2018-10-17T18:22:17.586Z,37.67
2018-10-17T18:24:45.805Z,38.07
2018-10-17T18:27:14.045Z,38.50
2018-10-17T18:29:42.443Z,37.03
2018-10-17T18:32:10.873Z,40.50
2018-10-17T18:34:39.216Z,38.77
2018-10-17T18:37:07.577Z,40.27
2018-10-17T18:39:35.936Z,43.30
2018-10-17T18:42:04.401Z,42.03
2018-10-17T18:44:32.616Z,48.90
2018-10-17T18:47:00.853Z,43.10
2018-10-17T18:49:29.065Z,41.43
2018-10-17T18:51:57.217Z,43.90
2018-10-17T18:54:25.412Z,44.60
2018-10-17T18:56:53.618Z,43.03
2018-10-17T18:59:21.776Z,44.90
2018-10-17T19:01:50.043Z,44.00
2018-10-17T19:04:18.232Z,45.20
2018-10-17T19:06:46.378Z,44.63
2018-10-17T19:09:14.889Z,44.73
2018-10-17T19:11:43.052Z,48.67
2018-10-17T19:14:11.273Z,47.23
2018-10-17T19:16:39.447Z,47.57
2018-10-17T19:19:07.603Z,48.03
2018-10-17T19:21:35.929Z,48.50
2018-10-17T19:24:04.301Z,49.37
2018-10-17T19:26:32.461Z,47.60
2018-10-17T19:29:00.593Z,48.17
2018-10-17T19:31:28.867Z,49.93
2018-10-17T19:33:57.008Z,49.90
2018-10-17T19:36:25.184Z,49.10
2018-10-17T19:38:53.471Z,50.40
2018-10-17T19:41:21.612Z,48.80
2018-10-17T19:43:49.789Z,51.00
2018-10-17T19:46:17.965Z,47.93
2018-10-17T19:48:46.134Z,50.40
2018-10-17T19:51:14.379Z,52.07
2018-10-17T19:53:42.477Z,48.87
2018-10-17T19:56:10.612Z,49.50
2018-10-17T19:58:38.782Z,47.93
2018-10-17T20:01:06.933Z,53.80
2018-10-17T20:03:35.104Z,52.67
2018-10-17T20:06:03.263Z,54.70
2018-10-17T20:08:31.473Z,55.17
2018-10-17T20:10:59.677Z,52.83
2018-10-17T20:13:27.833Z,51.17
2018-10-17T20:15:56.017Z,53.50
2018-10-17T20:18:24.820Z,56.63
2018-10-17T20:20:53.142Z,53.07
2018-10-17T20:23:21.523Z,53.30
2018-10-17T20:25:49.692Z,55.70
2018-10-17T20:28:17.890Z,53.83
2018-10-17T20:30:46.057Z,54.33
2018-10-17T20:33:14.534Z,57.67
2018-10-17T20:35:42.556Z,55.67
2018-10-17T20:38:10.744Z,58.67
2018-10-17T20:40:38.962Z,52.97
2018-10-17T20:43:07.117Z,54.97
2018-10-17T20:45:35.273Z,53.80
2018-10-17T20:48:03.468Z,52.80
2018-10-17T20:50:31.654Z,55.43
2018-10-17T20:52:59.841Z,57.23
2018-10-17T20:55:28.006Z,57.40
2018-10-17T20:57:56.273Z,53.80
2018-10-17T21:00:24.409Z,59.00
2018-10-17T21:02:52.588Z,56.97
2018-10-17T21:05:20.756Z,59.10
2018-10-17T21:07:49.029Z,61.07
2018-10-17T21:10:17.236Z,58.13
2018-10-17T21:12:45.523Z,55.90
2018-10-17T21:15:13.762Z,58.07
2018-10-17T21:17:42.008Z,60.57
2018-10-17T21:20:10.222Z,56.77
2018-10-17T21:22:38.436Z,57.33
2018-10-17T21:25:06.664Z,58.97
2018-10-17T21:27:35.053Z,57.60
2018-10-17T21:30:03.390Z,55.27
2018-10-17T21:32:31.556Z,56.80
2018-10-17T21:34:59.721Z,55.80
2018-10-17T21:37:27.938Z,56.20
2018-10-17T21:39:56.188Z,56.30
2018-10-17T21:42:24.361Z,59.13
2018-10-17T21:44:52.529Z,54.73
2018-10-17T21:47:20.769Z,51.17
2018-10-17T21:49:49.124Z,55.07
2018-10-17T21:52:17.293Z,58.60
2018-10-17T21:54:45.465Z,56.27
2018-10-17T21:57:13.622Z,58.07
2018-10-17T21:59:41.861Z,57.30
2018-10-17T22:02:10.059Z,57.80
2018-10-17T22:04:38.191Z,59.67
2018-10-17T22:07:07.204Z,56.10
2018-10-17T22:09:35.420Z,59.07
2018-10-17T22:12:03.548Z,60.47
2018-10-17T22:14:31.709Z,56.77
2018-10-17T22:17:05.301Z,59.30
2018-10-17T22:19:34.114Z,56.30
2018-10-17T22:22:02.246Z,60.37
2018-10-17T22:24:30.463Z,58.20
2018-10-17T22:26:58.633Z,59.77
2018-10-17T22:29:26.773Z,59.60
2018-10-17T22:31:54.967Z,55.10
2018-10-17T22:34:23.128Z,57.10
2018-10-17T22:36:51.320Z,59.07
2018-10-17T22:39:19.501Z,53.70
2018-10-17T22:41:47.694Z,55.87
2018-10-17T22:44:15.942Z,57.47
2018-10-17T22:46:44.067Z,54.93
2018-10-17T22:49:12.232Z,57.93
2018-10-17T22:51:40.570Z,52.07
2018-10-17T22:54:08.847Z,54.27
2018-10-17T22:56:37.833Z,52.63
2018-10-17T22:59:06.276Z,54.20
2018-10-17T23:01:34.830Z,52.50
2018-10-17T23:04:03.025Z,50.97
2018-10-17T23:06:31.191Z,51.80
2018-10-17T23:08:59.362Z,52.37
2018-10-17T23:11:27.520Z,53.90
2018-10-17T23:13:55.708Z,57.63
2018-10-17T23:16:23.853Z,56.83
2018-10-17T23:18:52.027Z,52.33
2018-10-17T23:21:20.190Z,53.07
2018-10-17T23:23:48.440Z,52.07
2018-10-17T23:26:16.678Z,50.37
2018-10-17T23:28:44.789Z,51.57
2018-10-17T23:31:12.956Z,52.73
2018-10-17T23:33:41.100Z,50.20
2018-10-17T23:36:09.248Z,53.83
2018-10-17T23:38:37.514Z,57.20
2018-10-17T23:41:05.845Z,54.80
2018-10-17T23:43:34.000Z,50.57
2018-10-17T23:46:02.134Z,53.73
2018-10-17T23:48:30.305Z,54.87
2018-10-17T23:50:58.458Z,51.90
2018-10-17T23:53:26.614Z,54.40
2018-10-17T23:55:54.823Z,54.47
2018-10-17T23:58:22.941Z,56.13
